sensor_id;sensor_type;location;lat;lon;timestamp;temperature;humidity
16970;DHT22;8601;48.718;8.992;2023-02-05T00:01:55;2.40;99.90
16970;DHT22;8601;48.718;8.992;2023-02-05T00:04:22;2.50;99.90
16970;DHT22;8601;48.718;8.992;2023-02-05T00:06:50;2.50;99.90
16970;DHT22;8601;48.718;8.992;2023-02-05T00:09:17;2.50;99.90
16970;DHT22;8601;48.718;8.992;2023-02-05T00:11:44;2.50;99.90
16970;DHT22;8601;48.718;8.992;2023-02-05T00:14:11;2.50;99.90
16970;DHT22;8601;48.718;8.992;2023-02-05T00:16:39;2.60;99.90
16970;DHT22;8601;48.718;8.992;2023-02-05T00:19:06;2.60;99.90
16970;DHT22;8601;48.718;8.992;2023-02-05T00:21:33;2.60;99.90
16970;DHT22;8601;48.718;8.992;2023-02-05T00:24:00;2.50;99.90
16970;DHT22;8601;48.718;8.992;2023-02-05T00:26:27;2.50;99.90
16970;DHT22;8601;48.718;8.992;2023-02-05T00:28:56;2.50;99.90
16970;DHT22;8601;48.718;8.992;2023-02-05T00:31:24;2.50;99.90
16970;DHT22;8601;48.718;8.992;2023-02-05T00:33:53;2.50;99.90
16970;DHT22;8601;48.718;8.992;2023-02-05T00:36:21;2.60;99.90
16970;DHT22;8601;48.718;8.992;2023-02-05T00:38:49;2.60;99.90
16970;DHT22;8601;48.718;8.992;2023-02-05T00:41:25;2.60;99.90
16970;DHT22;8601;48.718;8.992;2023-02-05T00:43:52;2.60;99.90
16970;DHT22;8601;48.718;8.992;2023-02-05T00:46:19;2.60;99.90
16970;DHT22;8601;48.718;8.992;2023-02-05T00:48:46;2.60;99.90
16970;DHT22;8601;48.718;8.992;2023-02-05T00:51:14;2.60;99.90
16970;DHT22;8601;48.718;8.992;2023-02-05T00:53:46;2.60;99.90
16970;DHT22;8601;48.718;8.992;2023-02-05T00:56:13;2.60;99.90
16970;DHT22;8601;48.718;8.992;2023-02-05T00:58:40;2.60;99.90
16970;DHT22;8601;48.718;8.992;2023-02-05T01:01:12;2.50;99.90
16970;DHT22;8601;48.718;8.992;2023-02-05T01:03:38;2.50;99.90
16970;DHT22;8601;48.718;8.992;2023-02-05T01:06:06;2.50;99.90
16970;DHT22;8601;48.718;8.992;2023-02-05T01:08:34;2.50;99.90
16970;DHT22;8601;48.718;8.992;2023-02-05T01:11:06;2.50;99.90
16970;DHT22;8601;48.718;8.992;2023-02-05T01:13:34;2.50;99.90
16970;DHT22;8601;48.718;8.992;2023-02-05T01:16:01;2.40;99.90
16970;DHT22;8601;48.718;8.992;2023-02-05T01:18:28;2.30;99.90
16970;DHT22;8601;48.718;8.992;2023-02-05T01:20:55;2.30;99.90
16970;DHT22;8601;48.718;8.992;2023-02-05T01:23:24;2.30;99.90
16970;DHT22;8601;48.718;8.992;2023-02-05T01:25:52;2.30;99.90
16970;DHT22;8601;48.718;8.992;2023-02-05T01:28:19;2.30;99.90
16970;DHT22;8601;48.718;8.992;2023-02-05T01:30:47;2.30;99.90
16970;DHT22;8601;48.718;8.992;2023-02-05T01:33:14;2.30;99.90
16970;DHT22;8601;48.718;8.992;2023-02-05T01:35:41;2.20;99.90
16970;DHT22;8601;48.718;8.992;2023-02-05T01:38:09;2.30;99.90
16970;DHT22;8601;48.718;8.992;2023-02-05T01:40:36;2.30;99.90
16970;DHT22;8601;48.718;8.992;2023-02-05T01:43:08;2.30;99.90
16970;DHT22;8601;48.718;8.992;2023-02-05T01:46:02;2.20;99.90
16970;DHT22;8601;48.718;8.992;2023-02-05T01:48:33;2.30;99.90
16970;DHT22;8601;48.718;8.992;2023-02-05T01:51:05;2.20;99.90
16970;DHT22;8601;48.718;8.992;2023-02-05T01:53:35;2.30;99.90
16970;DHT22;8601;48.718;8.992;2023-02-05T01:56:05;2.20;99.90
16970;DHT22;8601;48.718;8.992;2023-02-05T01:58:39;2.30;99.90
16970;DHT22;8601;48.718;8.992;2023-02-05T02:01:08;2.30;99.90
16970;DHT22;8601;48.718;8.992;2023-02-05T02:03:35;2.30;99.90
16970;DHT22;8601;48.718;8.992;2023-02-05T02:06:02;2.20;99.90
16970;DHT22;8601;48.718;8.992;2023-02-05T02:08:30;2.30;99.90
16970;DHT22;8601;48.718;8.992;2023-02-05T02:10:57;2.30;99.90
16970;DHT22;8601;48.718;8.992;2023-02-05T02:13:28;2.20;99.90
16970;DHT22;8601;48.718;8.992;2023-02-05T02:15:58;2.20;99.90
16970;DHT22;8601;48.718;8.992;2023-02-05T02:18:26;2.20;99.90
16970;DHT22;8601;48.718;8.992;2023-02-05T02:21:18;2.20;99.90
16970;DHT22;8601;48.718;8.992;2023-02-05T02:24:02;2.20;99.90
16970;DHT22;8601;48.718;8.992;2023-02-05T02:26:52;2.20;99.90
16970;DHT22;8601;48.718;8.992;2023-02-05T02:29:30;2.20;99.90
16970;DHT22;8601;48.718;8.992;2023-02-05T02:32:08;2.20;99.90
16970;DHT22;8601;48.718;8.992;2023-02-05T02:34:43;2.30;99.90
16970;DHT22;8601;48.718;8.992;2023-02-05T02:37:16;2.30;99.90
16970;DHT22;8601;48.718;8.992;2023-02-05T02:39:53;2.20;99.90
16970;DHT22;8601;48.718;8.992;2023-02-05T02:42:36;2.20;99.90
16970;DHT22;8601;48.718;8.992;2023-02-05T02:45:09;2.10;99.90
16970;DHT22;8601;48.718;8.992;2023-02-05T02:47:38;2.10;99.90
16970;DHT22;8601;48.718;8.992;2023-02-05T02:50:10;2.20;99.90
16970;DHT22;8601;48.718;8.992;2023-02-05T02:52:42;2.30;99.90
16970;DHT22;8601;48.718;8.992;2023-02-05T02:55:12;2.30;99.90
16970;DHT22;8601;48.718;8.992;2023-02-05T02:57:50;2.30;99.90
16970;DHT22;8601;48.718;8.992;2023-02-05T03:00:23;2.30;99.90
16970;DHT22;8601;48.718;8.992;2023-02-05T03:02:55;2.30;99.90
16970;DHT22;8601;48.718;8.992;2023-02-05T03:05:24;2.30;99.90
16970;DHT22;8601;48.718;8.992;2023-02-05T03:07:56;2.40;99.90
16970;DHT22;8601;48.718;8.992;2023-02-05T03:10:29;2.50;99.90
16970;DHT22;8601;48.718;8.992;2023-02-05T03:12:57;2.40;99.90
16970;DHT22;8601;48.718;8.992;2023-02-05T03:15:26;2.50;99.90
16970;DHT22;8601;48.718;8.992;2023-02-05T03:17:54;2.50;99.90
16970;DHT22;8601;48.718;8.992;2023-02-05T03:20:24;2.50;99.90
16970;DHT22;8601;48.718;8.992;2023-02-05T03:22:52;2.40;99.90
16970;DHT22;8601;48.718;8.992;2023-02-05T03:25:21;2.40;99.90
16970;DHT22;8601;48.718;8.992;2023-02-05T03:27:51;2.50;99.90
16970;DHT22;8601;48.718;8.992;2023-02-05T03:30:19;2.50;99.90
16970;DHT22;8601;48.718;8.992;2023-02-05T03:33:00;2.50;99.90
16970;DHT22;8601;48.718;8.992;2023-02-05T03:35:34;2.50;99.90
16970;DHT22;8601;48.718;8.992;2023-02-05T03:38:26;2.40;99.90
16970;DHT22;8601;48.718;8.992;2023-02-05T03:40:57;2.40;99.90
16970;DHT22;8601;48.718;8.992;2023-02-05T03:43:35;2.50;99.90
16970;DHT22;8601;48.718;8.992;2023-02-05T03:46:10;2.50;99.90
16970;DHT22;8601;48.718;8.992;2023-02-05T03:48:51;2.50;99.90
16970;DHT22;8601;48.718;8.992;2023-02-05T03:51:29;2.50;99.90
16970;DHT22;8601;48.718;8.992;2023-02-05T03:54:08;2.40;99.90
16970;DHT22;8601;48.718;8.992;2023-02-05T03:56:44;2.50;99.90
16970;DHT22;8601;48.718;8.992;2023-02-05T03:59:12;2.40;99.90
16970;DHT22;8601;48.718;8.992;2023-02-05T04:01:41;2.20;99.90
16970;DHT22;8601;48.718;8.992;2023-02-05T04:04:10;2.20;99.90
16970;DHT22;8601;48.718;8.992;2023-02-05T04:06:37;2.10;99.90
16970;DHT22;8601;48.718;8.992;2023-02-05T04:09:04;2.10;99.90
16970;DHT22;8601;48.718;8.992;2023-02-05T04:11:32;2.10;99.90
16970;DHT22;8601;48.718;8.992;2023-02-05T04:13:59;2.10;99.90
16970;DHT22;8601;48.718;8.992;2023-02-05T04:16:26;2.10;99.90
16970;DHT22;8601;48.718;8.992;2023-02-05T04:18:53;2.00;99.90
16970;DHT22;8601;48.718;8.992;2023-02-05T04:21:22;2.00;99.90
16970;DHT22;8601;48.718;8.992;2023-02-05T04:23:48;2.00;99.90
16970;DHT22;8601;48.718;8.992;2023-02-05T04:26:15;1.80;99.90
16970;DHT22;8601;48.718;8.992;2023-02-05T04:28:43;1.80;99.90
16970;DHT22;8601;48.718;8.992;2023-02-05T04:31:11;1.60;99.90
16970;DHT22;8601;48.718;8.992;2023-02-05T04:33:38;1.60;99.90
16970;DHT22;8601;48.718;8.992;2023-02-05T04:36:06;1.50;99.90
16970;DHT22;8601;48.718;8.992;2023-02-05T04:38:35;1.50;99.90
16970;DHT22;8601;48.718;8.992;2023-02-05T04:41:02;1.60;99.90
16970;DHT22;8601;48.718;8.992;2023-02-05T04:43:29;1.60;99.90
16970;DHT22;8601;48.718;8.992;2023-02-05T04:45:56;1.60;99.90
16970;DHT22;8601;48.718;8.992;2023-02-05T04:48:23;1.70;99.90
16970;DHT22;8601;48.718;8.992;2023-02-05T04:50:49;1.70;99.90
16970;DHT22;8601;48.718;8.992;2023-02-05T04:53:16;1.60;99.90
16970;DHT22;8601;48.718;8.992;2023-02-05T04:55:45;1.60;99.90
16970;DHT22;8601;48.718;8.992;2023-02-05T04:58:12;1.70;99.90
16970;DHT22;8601;48.718;8.992;2023-02-05T05:00:39;1.70;99.90
16970;DHT22;8601;48.718;8.992;2023-02-05T05:03:05;1.70;99.90
16970;DHT22;8601;48.718;8.992;2023-02-05T05:05:33;1.80;99.90
16970;DHT22;8601;48.718;8.992;2023-02-05T05:08:00;1.80;99.90
16970;DHT22;8601;48.718;8.992;2023-02-05T05:10:27;1.90;99.90
16970;DHT22;8601;48.718;8.992;2023-02-05T05:12:55;1.90;99.90
16970;DHT22;8601;48.718;8.992;2023-02-05T05:15:22;1.90;99.90
16970;DHT22;8601;48.718;8.992;2023-02-05T05:17:49;1.90;99.90
16970;DHT22;8601;48.718;8.992;2023-02-05T05:20:16;1.80;99.90
16970;DHT22;8601;48.718;8.992;2023-02-05T05:22:44;1.90;99.90
16970;DHT22;8601;48.718;8.992;2023-02-05T05:25:10;1.90;99.90
16970;DHT22;8601;48.718;8.992;2023-02-05T05:27:37;1.90;99.90
16970;DHT22;8601;48.718;8.992;2023-02-05T05:30:07;1.90;99.90
16970;DHT22;8601;48.718;8.992;2023-02-05T05:32:34;1.90;99.90
16970;DHT22;8601;48.718;8.992;2023-02-05T05:35:02;1.80;99.90
16970;DHT22;8601;48.718;8.992;2023-02-05T05:37:29;1.80;99.90
16970;DHT22;8601;48.718;8.992;2023-02-05T05:39:56;1.90;99.90
16970;DHT22;8601;48.718;8.992;2023-02-05T05:42:43;1.90;99.90
16970;DHT22;8601;48.718;8.992;2023-02-05T05:45:28;1.70;99.90
16970;DHT22;8601;48.718;8.992;2023-02-05T05:47:55;1.80;99.90
16970;DHT22;8601;48.718;8.992;2023-02-05T05:50:22;1.80;99.90
16970;DHT22;8601;48.718;8.992;2023-02-05T05:52:49;1.80;99.90
16970;DHT22;8601;48.718;8.992;2023-02-05T05:55:15;1.80;99.90
16970;DHT22;8601;48.718;8.992;2023-02-05T05:57:42;1.80;99.90
16970;DHT22;8601;48.718;8.992;2023-02-05T06:00:11;1.80;99.90
16970;DHT22;8601;48.718;8.992;2023-02-05T06:02:40;1.80;99.90
16970;DHT22;8601;48.718;8.992;2023-02-05T06:05:09;1.80;99.90
16970;DHT22;8601;48.718;8.992;2023-02-05T06:07:42;1.80;99.90
16970;DHT22;8601;48.718;8.992;2023-02-05T06:10:09;1.80;99.90
16970;DHT22;8601;48.718;8.992;2023-02-05T06:12:36;1.90;99.90
16970;DHT22;8601;48.718;8.992;2023-02-05T06:15:04;1.90;99.90
16970;DHT22;8601;48.718;8.992;2023-02-05T06:17:31;1.90;99.90
16970;DHT22;8601;48.718;8.992;2023-02-05T06:19:59;1.80;99.90
16970;DHT22;8601;48.718;8.992;2023-02-05T06:22:26;1.80;99.90
16970;DHT22;8601;48.718;8.992;2023-02-05T06:24:53;1.70;99.90
16970;DHT22;8601;48.718;8.992;2023-02-05T06:27:20;1.70;99.90
16970;DHT22;8601;48.718;8.992;2023-02-05T06:29:47;1.70;99.90
16970;DHT22;8601;48.718;8.992;2023-02-05T06:32:14;1.70;99.90
16970;DHT22;8601;48.718;8.992;2023-02-05T06:34:41;1.80;99.90
16970;DHT22;8601;48.718;8.992;2023-02-05T06:37:09;1.80;99.90
16970;DHT22;8601;48.718;8.992;2023-02-05T06:39:36;1.80;99.90
16970;DHT22;8601;48.718;8.992;2023-02-05T06:42:03;1.80;99.90
16970;DHT22;8601;48.718;8.992;2023-02-05T06:44:30;1.90;99.90
16970;DHT22;8601;48.718;8.992;2023-02-05T06:46:57;2.00;99.90
16970;DHT22;8601;48.718;8.992;2023-02-05T06:49:24;2.00;99.90
16970;DHT22;8601;48.718;8.992;2023-02-05T06:51:51;2.00;99.90
16970;DHT22;8601;48.718;8.992;2023-02-05T06:54:20;2.00;99.90
16970;DHT22;8601;48.718;8.992;2023-02-05T06:56:47;2.10;99.90
16970;DHT22;8601;48.718;8.992;2023-02-05T06:59:14;2.20;99.90
16970;DHT22;8601;48.718;8.992;2023-02-05T07:01:41;2.10;99.90
16970;DHT22;8601;48.718;8.992;2023-02-05T07:04:08;2.20;99.90
16970;DHT22;8601;48.718;8.992;2023-02-05T07:06:35;2.10;99.90
16970;DHT22;8601;48.718;8.992;2023-02-05T07:09:02;2.20;99.90
16970;DHT22;8601;48.718;8.992;2023-02-05T07:11:33;2.10;99.90
16970;DHT22;8601;48.718;8.992;2023-02-05T07:14:01;2.20;99.90
16970;DHT22;8601;48.718;8.992;2023-02-05T07:16:28;2.20;99.90
16970;DHT22;8601;48.718;8.992;2023-02-05T07:18:56;2.10;99.90
16970;DHT22;8601;48.718;8.992;2023-02-05T07:21:23;2.20;99.90
16970;DHT22;8601;48.718;8.992;2023-02-05T07:23:50;2.10;99.90
16970;DHT22;8601;48.718;8.992;2023-02-05T07:26:17;2.10;99.90
16970;DHT22;8601;48.718;8.992;2023-02-05T07:28:46;2.20;99.90
16970;DHT22;8601;48.718;8.992;2023-02-05T07:31:15;2.20;99.90
16970;DHT22;8601;48.718;8.992;2023-02-05T07:33:43;2.20;99.90
16970;DHT22;8601;48.718;8.992;2023-02-05T07:36:11;2.20;99.90
16970;DHT22;8601;48.718;8.992;2023-02-05T07:38:41;2.20;99.90
16970;DHT22;8601;48.718;8.992;2023-02-05T07:41:15;2.20;99.90
16970;DHT22;8601;48.718;8.992;2023-02-05T07:43:42;2.10;99.90
16970;DHT22;8601;48.718;8.992;2023-02-05T07:46:13;2.10;99.90
16970;DHT22;8601;48.718;8.992;2023-02-05T07:48:40;2.10;99.90
16970;DHT22;8601;48.718;8.992;2023-02-05T07:51:15;2.10;99.90
16970;DHT22;8601;48.718;8.992;2023-02-05T07:53:43;2.20;99.90
16970;DHT22;8601;48.718;8.992;2023-02-05T07:56:10;2.30;99.90
16970;DHT22;8601;48.718;8.992;2023-02-05T07:58:38;2.30;99.90
16970;DHT22;8601;48.718;8.992;2023-02-05T08:01:05;2.40;99.90
16970;DHT22;8601;48.718;8.992;2023-02-05T08:03:34;2.40;99.90
16970;DHT22;8601;48.718;8.992;2023-02-05T08:06:03;2.40;99.90
16970;DHT22;8601;48.718;8.992;2023-02-05T08:08:31;2.50;99.90
16970;DHT22;8601;48.718;8.992;2023-02-05T08:11:00;2.50;99.90
16970;DHT22;8601;48.718;8.992;2023-02-05T08:13:27;2.60;99.90
16970;DHT22;8601;48.718;8.992;2023-02-05T08:15:55;2.50;99.90
16970;DHT22;8601;48.718;8.992;2023-02-05T08:18:22;2.60;99.90
16970;DHT22;8601;48.718;8.992;2023-02-05T08:20:52;2.50;99.90
16970;DHT22;8601;48.718;8.992;2023-02-05T08:23:20;2.60;99.90
16970;DHT22;8601;48.718;8.992;2023-02-05T08:25:52;2.50;99.90
16970;DHT22;8601;48.718;8.992;2023-02-05T08:28:19;2.50;99.90
16970;DHT22;8601;48.718;8.992;2023-02-05T08:30:46;2.60;99.90
16970;DHT22;8601;48.718;8.992;2023-02-05T08:33:14;2.60;99.90
16970;DHT22;8601;48.718;8.992;2023-02-05T08:35:41;2.50;99.90
16970;DHT22;8601;48.718;8.992;2023-02-05T08:38:09;2.50;99.90
16970;DHT22;8601;48.718;8.992;2023-02-05T08:40:37;2.40;99.90
16970;DHT22;8601;48.718;8.992;2023-02-05T08:43:04;2.50;99.90
16970;DHT22;8601;48.718;8.992;2023-02-05T08:45:33;2.50;99.90
16970;DHT22;8601;48.718;8.992;2023-02-05T08:48:00;2.50;99.90
16970;DHT22;8601;48.718;8.992;2023-02-05T08:50:27;2.60;99.90
16970;DHT22;8601;48.718;8.992;2023-02-05T08:52:54;4.70;99.90
16970;DHT22;8601;48.718;8.992;2023-02-05T08:55:22;4.90;99.90
16970;DHT22;8601;48.718;8.992;2023-02-05T08:57:49;4.40;99.90
16970;DHT22;8601;48.718;8.992;2023-02-05T09:00:16;4.00;99.90
16970;DHT22;8601;48.718;8.992;2023-02-05T09:02:44;3.90;99.90
16970;DHT22;8601;48.718;8.992;2023-02-05T09:05:11;3.60;99.90
16970;DHT22;8601;48.718;8.992;2023-02-05T09:07:38;3.30;99.90
16970;DHT22;8601;48.718;8.992;2023-02-05T09:10:06;3.10;99.90
16970;DHT22;8601;48.718;8.992;2023-02-05T09:12:36;3.00;99.90
16970;DHT22;8601;48.718;8.992;2023-02-05T09:15:03;3.00;99.90
16970;DHT22;8601;48.718;8.992;2023-02-05T09:17:30;3.40;99.90
16970;DHT22;8601;48.718;8.992;2023-02-05T09:19:57;3.20;99.90
16970;DHT22;8601;48.718;8.992;2023-02-05T09:22:24;3.00;99.90
16970;DHT22;8601;48.718;8.992;2023-02-05T09:24:51;3.00;99.90
16970;DHT22;8601;48.718;8.992;2023-02-05T09:27:19;3.00;99.90
16970;DHT22;8601;48.718;8.992;2023-02-05T09:29:47;2.80;99.90
16970;DHT22;8601;48.718;8.992;2023-02-05T09:32:14;2.90;99.90
16970;DHT22;8601;48.718;8.992;2023-02-05T09:34:41;2.80;99.90
16970;DHT22;8601;48.718;8.992;2023-02-05T09:37:08;2.60;99.90
16970;DHT22;8601;48.718;8.992;2023-02-05T09:39:35;2.70;99.90
16970;DHT22;8601;48.718;8.992;2023-02-05T09:42:09;2.70;99.90
16970;DHT22;8601;48.718;8.992;2023-02-05T09:45:00;2.80;99.90
16970;DHT22;8601;48.718;8.992;2023-02-05T09:47:32;2.80;99.90
16970;DHT22;8601;48.718;8.992;2023-02-05T09:50:12;2.90;99.90
16970;DHT22;8601;48.718;8.992;2023-02-05T09:52:43;2.90;99.90
16970;DHT22;8601;48.718;8.992;2023-02-05T09:55:19;3.00;99.90
16970;DHT22;8601;48.718;8.992;2023-02-05T09:57:48;3.10;99.90
16970;DHT22;8601;48.718;8.992;2023-02-05T10:02:44;3.10;99.90
16970;DHT22;8601;48.718;8.992;2023-02-05T10:05:15;3.20;99.90
16970;DHT22;8601;48.718;8.992;2023-02-05T10:07:48;3.20;99.90
16970;DHT22;8601;48.718;8.992;2023-02-05T10:10:23;3.10;99.90
16970;DHT22;8601;48.718;8.992;2023-02-05T10:13:22;3.20;99.90
16970;DHT22;8601;48.718;8.992;2023-02-05T10:16:01;3.20;99.90
16970;DHT22;8601;48.718;8.992;2023-02-05T10:18:43;3.20;99.90
16970;DHT22;8601;48.718;8.992;2023-02-05T10:21:26;3.10;99.90
16970;DHT22;8601;48.718;8.992;2023-02-05T10:24:18;3.10;99.90
16970;DHT22;8601;48.718;8.992;2023-02-05T10:26:54;3.20;99.90
16970;DHT22;8601;48.718;8.992;2023-02-05T10:29:36;3.20;99.90
16970;DHT22;8601;48.718;8.992;2023-02-05T10:32:16;3.20;99.90
16970;DHT22;8601;48.718;8.992;2023-02-05T10:34:54;3.30;99.90
16970;DHT22;8601;48.718;8.992;2023-02-05T10:37:34;3.30;99.90
16970;DHT22;8601;48.718;8.992;2023-02-05T10:40:11;3.20;99.90
16970;DHT22;8601;48.718;8.992;2023-02-05T10:42:40;3.10;99.90
16970;DHT22;8601;48.718;8.992;2023-02-05T10:45:14;3.20;99.90
16970;DHT22;8601;48.718;8.992;2023-02-05T10:50:42;3.40;99.90
16970;DHT22;8601;48.718;8.992;2023-02-05T10:53:12;3.40;99.90
16970;DHT22;8601;48.718;8.992;2023-02-05T10:55:41;3.40;99.90
16970;DHT22;8601;48.718;8.992;2023-02-05T10:58:24;3.40;99.90
16970;DHT22;8601;48.718;8.992;2023-02-05T11:00:54;3.40;99.90
16970;DHT22;8601;48.718;8.992;2023-02-05T11:03:24;3.50;99.90
16970;DHT22;8601;48.718;8.992;2023-02-05T11:05:52;3.50;99.90
16970;DHT22;8601;48.718;8.992;2023-02-05T11:08:31;3.60;99.90
16970;DHT22;8601;48.718;8.992;2023-02-05T11:10:59;3.60;99.90
16970;DHT22;8601;48.718;8.992;2023-02-05T11:13:27;3.60;99.90
16970;DHT22;8601;48.718;8.992;2023-02-05T11:15:56;3.60;99.90
16970;DHT22;8601;48.718;8.992;2023-02-05T11:18:26;3.60;99.90
16970;DHT22;8601;48.718;8.992;2023-02-05T11:20:57;3.70;99.90
16970;DHT22;8601;48.718;8.992;2023-02-05T11:23:25;3.70;99.90
16970;DHT22;8601;48.718;8.992;2023-02-05T11:25:57;3.80;99.90
16970;DHT22;8601;48.718;8.992;2023-02-05T11:28:27;3.80;99.90
16970;DHT22;8601;48.718;8.992;2023-02-05T11:30:54;3.80;99.90
16970;DHT22;8601;48.718;8.992;2023-02-05T11:33:26;3.70;99.90
16970;DHT22;8601;48.718;8.992;2023-02-05T11:35:56;4.80;99.90
16970;DHT22;8601;48.718;8.992;2023-02-05T11:38:34;4.70;99.90
16970;DHT22;8601;48.718;8.992;2023-02-05T11:41:09;4.60;99.90
16970;DHT22;8601;48.718;8.992;2023-02-05T11:43:38;4.40;99.90
16970;DHT22;8601;48.718;8.992;2023-02-05T11:46:16;4.40;99.90
16970;DHT22;8601;48.718;8.992;2023-02-05T11:48:46;4.20;99.90
16970;DHT22;8601;48.718;8.992;2023-02-05T11:51:36;4.20;99.90
16970;DHT22;8601;48.718;8.992;2023-02-05T11:54:14;4.20;99.90
16970;DHT22;8601;48.718;8.992;2023-02-05T11:57:02;4.20;99.90
16970;DHT22;8601;48.718;8.992;2023-02-05T11:59:30;4.30;99.90
16970;DHT22;8601;48.718;8.992;2023-02-05T12:02:29;4.30;99.90
16970;DHT22;8601;48.718;8.992;2023-02-05T12:05:00;4.30;99.90
16970;DHT22;8601;48.718;8.992;2023-02-05T12:07:34;4.30;99.90
16970;DHT22;8601;48.718;8.992;2023-02-05T12:10:14;4.30;99.90
16970;DHT22;8601;48.718;8.992;2023-02-05T12:12:48;4.30;99.90
16970;DHT22;8601;48.718;8.992;2023-02-05T12:15:22;4.30;99.90
16970;DHT22;8601;48.718;8.992;2023-02-05T12:17:58;4.20;99.90
16970;DHT22;8601;48.718;8.992;2023-02-05T12:20:38;4.30;99.90
16970;DHT22;8601;48.718;8.992;2023-02-05T12:23:26;4.20;99.90
16970;DHT22;8601;48.718;8.992;2023-02-05T12:26:12;4.20;99.90
16970;DHT22;8601;48.718;8.992;2023-02-05T12:28:49;4.20;99.90
16970;DHT22;8601;48.718;8.992;2023-02-05T12:31:45;4.30;99.90
16970;DHT22;8601;48.718;8.992;2023-02-05T12:34:23;4.30;99.90
16970;DHT22;8601;48.718;8.992;2023-02-05T12:37:14;4.30;99.90
16970;DHT22;8601;48.718;8.992;2023-02-05T12:39:50;4.30;99.90
16970;DHT22;8601;48.718;8.992;2023-02-05T12:42:28;4.30;99.90
16970;DHT22;8601;48.718;8.992;2023-02-05T12:45:17;4.30;99.90
16970;DHT22;8601;48.718;8.992;2023-02-05T12:48:07;4.20;99.90
16970;DHT22;8601;48.718;8.992;2023-02-05T12:50:52;4.10;99.90
16970;DHT22;8601;48.718;8.992;2023-02-05T12:53:38;4.00;99.90
16970;DHT22;8601;48.718;8.992;2023-02-05T12:56:30;4.70;99.90
16970;DHT22;8601;48.718;8.992;2023-02-05T12:59:05;4.60;99.90
16970;DHT22;8601;48.718;8.992;2023-02-05T13:01:40;4.50;99.90
16970;DHT22;8601;48.718;8.992;2023-02-05T13:04:18;4.40;99.90
16970;DHT22;8601;48.718;8.992;2023-02-05T13:06:50;4.30;99.90
16970;DHT22;8601;48.718;8.992;2023-02-05T13:09:23;4.30;99.90
16970;DHT22;8601;48.718;8.992;2023-02-05T13:11:56;4.30;99.90
16970;DHT22;8601;48.718;8.992;2023-02-05T13:14:27;4.20;99.90
16970;DHT22;8601;48.718;8.992;2023-02-05T13:17:00;4.10;99.90
16970;DHT22;8601;48.718;8.992;2023-02-05T13:19:31;4.10;99.90
16970;DHT22;8601;48.718;8.992;2023-02-05T13:22:03;4.20;99.90
16970;DHT22;8601;48.718;8.992;2023-02-05T13:24:53;4.20;99.90
16970;DHT22;8601;48.718;8.992;2023-02-05T13:27:42;4.00;99.90
16970;DHT22;8601;48.718;8.992;2023-02-05T13:30:34;4.00;99.90
16970;DHT22;8601;48.718;8.992;2023-02-05T13:33:05;4.00;99.90
16970;DHT22;8601;48.718;8.992;2023-02-05T13:35:39;4.00;99.90
16970;DHT22;8601;48.718;8.992;2023-02-05T13:38:23;3.90;99.90
16970;DHT22;8601;48.718;8.992;2023-02-05T13:41:26;3.90;99.90
16970;DHT22;8601;48.718;8.992;2023-02-05T13:44:14;3.90;99.90
16970;DHT22;8601;48.718;8.992;2023-02-05T13:50:10;3.70;99.90
16970;DHT22;8601;48.718;8.992;2023-02-05T13:53:02;3.60;99.90
16970;DHT22;8601;48.718;8.992;2023-02-05T13:56:06;3.70;99.90
16970;DHT22;8601;48.718;8.992;2023-02-05T13:58:38;3.70;99.90
16970;DHT22;8601;48.718;8.992;2023-02-05T14:01:16;3.60;99.90
16970;DHT22;8601;48.718;8.992;2023-02-05T14:03:54;3.50;99.90
16970;DHT22;8601;48.718;8.992;2023-02-05T14:06:30;3.50;99.90
16970;DHT22;8601;48.718;8.992;2023-02-05T14:09:02;3.40;99.90
16970;DHT22;8601;48.718;8.992;2023-02-05T14:11:48;3.40;99.90
16970;DHT22;8601;48.718;8.992;2023-02-05T14:14:27;3.40;99.90
16970;DHT22;8601;48.718;8.992;2023-02-05T14:16:57;3.40;99.90
16970;DHT22;8601;48.718;8.992;2023-02-05T14:19:26;3.30;99.90
16970;DHT22;8601;48.718;8.992;2023-02-05T14:22:34;3.30;99.90
16970;DHT22;8601;48.718;8.992;2023-02-05T14:25:04;3.30;99.90
16970;DHT22;8601;48.718;8.992;2023-02-05T14:27:51;3.30;99.90
16970;DHT22;8601;48.718;8.992;2023-02-05T14:30:56;3.20;99.90
16970;DHT22;8601;48.718;8.992;2023-02-05T14:33:36;3.30;99.90
16970;DHT22;8601;48.718;8.992;2023-02-05T14:39:18;4.50;99.90
16970;DHT22;8601;48.718;8.992;2023-02-05T14:41:52;3.90;99.90
16970;DHT22;8601;48.718;8.992;2023-02-05T14:44:24;3.80;99.90
16970;DHT22;8601;48.718;8.992;2023-02-05T14:47:00;3.60;99.90
16970;DHT22;8601;48.718;8.992;2023-02-05T14:49:39;3.40;99.90
16970;DHT22;8601;48.718;8.992;2023-02-05T14:52:24;3.30;99.90
16970;DHT22;8601;48.718;8.992;2023-02-05T14:55:00;3.30;99.90
16970;DHT22;8601;48.718;8.992;2023-02-05T14:57:49;3.30;99.90
16970;DHT22;8601;48.718;8.992;2023-02-05T15:00:26;3.20;99.90
16970;DHT22;8601;48.718;8.992;2023-02-05T15:03:31;3.10;99.90
16970;DHT22;8601;48.718;8.992;2023-02-05T15:06:05;3.10;99.90
16970;DHT22;8601;48.718;8.992;2023-02-05T15:08:43;3.10;99.90
16970;DHT22;8601;48.718;8.992;2023-02-05T15:11:19;3.10;99.90
16970;DHT22;8601;48.718;8.992;2023-02-05T15:17:39;3.20;99.90
16970;DHT22;8601;48.718;8.992;2023-02-05T15:20:25;3.20;99.90
16970;DHT22;8601;48.718;8.992;2023-02-05T15:23:03;3.10;99.90
16970;DHT22;8601;48.718;8.992;2023-02-05T15:25:36;3.10;99.90
16970;DHT22;8601;48.718;8.992;2023-02-05T15:28:07;3.10;99.90
16970;DHT22;8601;48.718;8.992;2023-02-05T15:30:47;4.30;99.90
16970;DHT22;8601;48.718;8.992;2023-02-05T15:33:19;4.00;99.90
16970;DHT22;8601;48.718;8.992;2023-02-05T15:35:58;3.80;99.90
16970;DHT22;8601;48.718;8.992;2023-02-05T15:38:33;3.50;99.90
16970;DHT22;8601;48.718;8.992;2023-02-05T15:41:05;3.50;99.90
16970;DHT22;8601;48.718;8.992;2023-02-05T15:43:32;3.50;99.90
16970;DHT22;8601;48.718;8.992;2023-02-05T15:46:01;3.40;99.90
16970;DHT22;8601;48.718;8.992;2023-02-05T15:48:37;3.40;99.90
16970;DHT22;8601;48.718;8.992;2023-02-05T15:51:15;3.20;99.90
16970;DHT22;8601;48.718;8.992;2023-02-05T15:53:48;3.20;99.90
16970;DHT22;8601;48.718;8.992;2023-02-05T15:56:21;3.20;99.90
16970;DHT22;8601;48.718;8.992;2023-02-05T15:58:52;3.30;99.90
16970;DHT22;8601;48.718;8.992;2023-02-05T16:01:23;3.20;99.90
16970;DHT22;8601;48.718;8.992;2023-02-05T16:04:25;3.20;99.90
16970;DHT22;8601;48.718;8.992;2023-02-05T16:06:53;3.20;99.90
16970;DHT22;8601;48.718;8.992;2023-02-05T16:09:24;3.20;99.90
16970;DHT22;8601;48.718;8.992;2023-02-05T16:11:56;3.20;99.90
16970;DHT22;8601;48.718;8.992;2023-02-05T16:14:56;3.10;99.90
16970;DHT22;8601;48.718;8.992;2023-02-05T16:17:50;3.10;99.90
16970;DHT22;8601;48.718;8.992;2023-02-05T16:20:33;3.10;99.90
16970;DHT22;8601;48.718;8.992;2023-02-05T16:23:02;3.10;99.90
16970;DHT22;8601;48.718;8.992;2023-02-05T16:25:38;3.10;99.90
16970;DHT22;8601;48.718;8.992;2023-02-05T16:28:14;3.10;99.90
16970;DHT22;8601;48.718;8.992;2023-02-05T16:30:52;3.00;99.90
16970;DHT22;8601;48.718;8.992;2023-02-05T16:33:30;3.00;99.90
16970;DHT22;8601;48.718;8.992;2023-02-05T16:36:11;3.10;99.90
16970;DHT22;8601;48.718;8.992;2023-02-05T16:38:41;3.10;99.90
16970;DHT22;8601;48.718;8.992;2023-02-05T16:41:23;3.90;99.90
16970;DHT22;8601;48.718;8.992;2023-02-05T16:43:51;3.70;99.90
16970;DHT22;8601;48.718;8.992;2023-02-05T16:46:25;3.60;99.90
16970;DHT22;8601;48.718;8.992;2023-02-05T16:48:56;3.50;99.90
16970;DHT22;8601;48.718;8.992;2023-02-05T16:52:01;3.40;99.90
16970;DHT22;8601;48.718;8.992;2023-02-05T16:54:37;3.30;99.90